Allison, Pennsylvania
Current Conditions -  °F | °C
As of 5:53 PM on Monday 24 Nov 2014 (Local Time) from KMGW Reporting Station
Clear Clear  
Wind Chill: 18°   Ceiling: Unl
Heat Index: 18°   Visibility: 10mi
Dew Point:   Wind: 9mph
Humidity: 38%   Direction: 250°WSW
Pressure: 29.66"   Gusts: 23mph
Location:  39.99°N, 79.86°W
Report Text: KMGW 242253Z 25008G20KT 210V280 10SM CLR 18/03 A2966 RMK AO2 SLP036 T01780033
Loading
Personal Weather Stations






























Interactive Weather Map New forecast layout! Learn more

10-Day Weather Forecast

Advertisements
Track Severe Weather on mobile